Shinkomaru No.8 — JK5142 — position and weather

sailwx.info

Track history (hours):
 
Tides and Currents Weather Stations Pressure Air Temp Water Temp Dewpoint Dewpoint Depression Visibility Wind Speed Wind Dir Waves Ship Positions

Shinkomaru No.8

Last reported at 2018-May-16 08:00 UTC. Time now 2018-May-20 15:14 UTC.
Position N 34°44' E 134°34'.

Length 61 m; draft 4.4 m.

Type: Tanker. MMSI: 431400035.

Date/timePositionNaut miles runAvg speedWind from/ knotsBaromVisibWave heightAir tempDewpointWater temp
2018-May-16 08:00N 34°44' E 134°34'3 0.1
2018-May-15 14:15N 34°44' E 134°38'0 0.0
2018-May-15 13:51N 34°44' E 134°38'0 0.0
2018-May-15 13:29N 34°44' E 134°38'0 0.0
2018-May-15 12:56N 34°44' E 134°38'0 0.0
2018-May-15 12:02N 34°44' E 134°38'0 0.0
2018-May-15 11:37N 34°44' E 134°38'0 0.0
2018-May-15 11:13N 34°44' E 134°38'0 0.0
2018-May-15 10:54N 34°44' E 134°38'3 7.5
2018-May-15 10:30N 34°42' E 134°41'612.4
2018-May-15 10:00N 34°40' E 134°48'714.0
2018-May-15 09:30N 34°37' E 134°56'713.7
2018-May-15 09:00N 34°36' E 135°04'611.7
2018-May-15 08:30N 34°30' E 135°05'612.8
2018-May-15 08:00N 34°24' E 135°05'612.7
2018-May-15 07:30N 34°18' E 135°04'4 8.7
2018-May-15 07:01N 34°14' E 135°07'0 0.2
2018-May-15 06:10N 34°14' E 135°07'0 0.0
2018-May-15 05:52N 34°14' E 135°07'0 0.0
2018-May-15 05:28N 34°14' E 135°07'0 0.0
2018-May-15 01:28N 34°14' E 135°07'0 0.0
2018-May-15 00:58N 34°14' E 135°07'0 0.0
2018-May-15 00:28N 34°14' E 135°07'0 0.0
2018-May-14 23:58N 34°14' E 135°07'0 0.0
2018-May-14 23:28N 34°14' E 135°07'0 0.0
2018-May-14 22:58N 34°14' E 135°07'0 0.0
2018-May-14 22:28N 34°14' E 135°07'0 0.2
2018-May-14 22:00N 34°14' E 135°07'1 1.5
2018-May-14 21:28N 34°15' E 135°06'0 0.0
2018-May-14 21:00N 34°15' E 135°06'0 0.0
2018-May-14 20:30N 34°15' E 135°06'0 0.0
2018-May-14 20:00N 34°15' E 135°06'0 0.0
2018-May-14 19:30N 34°15' E 135°06'0 0.0
2018-May-14 18:59N 34°15' E 135°06'0 0.0
2018-May-14 18:29N 34°15' E 135°06'0 0.0
2018-May-14 17:59N 34°15' E 135°06'1 2.5
2018-May-14 17:30N 34°15' E 135°05'612.4
2018-May-14 17:00N 34°13' E 134°58'612.1
2018-May-14 16:30N 34°12' E 134°51'612.6
2018-May-14 16:00N 34°10' E 134°43'714.0
2018-May-14 15:30N 34°16' E 134°38'713.4
2018-May-14 15:00N 34°18' E 134°31'713.1
2018-May-14 14:30N 34°21' E 134°23'612.9
2018-May-14 14:00N 34°23' E 134°16'713.0
2018-May-14 13:29N 34°26' E 134°08'7211.3
2018-May-14 07:06N 34°01' E 132°46'112.5
2018-May-14 06:59N 33°60' E 132°45'611.4
2018-May-14 06:29N 33°56' E 132°40'2011.4
2018-May-14 04:43N 33°50' E 132°17'411.9
2018-May-14 04:22N 33°50' E 132°12'511.2
2018-May-14 03:54N 33°47' E 132°07'711.4
2018-May-14 03:19N 33°45' E 131°59'412.5
2018-May-14 03:01N 33°45' E 131°54'613.0
2018-May-14 02:31N 33°47' E 131°47'713.3
2018-May-14 02:00N 33°48' E 131°39'713.6
2018-May-14 01:30N 33°49' E 131°31'713.2
2018-May-14 01:00N 33°50' E 131°23'612.8
2018-May-14 00:30N 33°51' E 131°15'612.4
2018-May-14 00:00N 33°53' E 131°09'611.9
2018-May-13 23:31N 33°57' E 131°03'5 9.8
2018-May-13 23:01N 33°58' E 130°58'1 2.6
2018-May-13 22:29N 33°57' E 130°56'0 0.0
2018-May-13 21:59N 33°57' E 130°56'0 0.0
2018-May-13 21:29N 33°57' E 130°56'0 0.0
2018-May-13 20:59N 33°57' E 130°56'0 0.0
2018-May-13 20:29N 33°57' E 130°56'0 0.0
2018-May-13 19:59N 33°57' E 130°56'0 0.0
2018-May-13 19:29N 33°57' E 130°56'0 0.0
2018-May-13 18:59N 33°57' E 130°56'0 0.0
2018-May-13 18:26N 33°57' E 130°56'0 0.0
2018-May-13 17:59N 33°57' E 130°56'0 0.0
2018-May-13 17:29N 33°57' E 130°56'0 0.0
2018-May-13 16:59N 33°57' E 130°56'0 0.0
2018-May-13 16:26N 33°57' E 130°56'0 0.0
2018-May-13 15:59N 33°57' E 130°56'0 0.0
2018-May-13 15:29N 33°57' E 130°56'0 0.0
2018-May-13 14:59N 33°57' E 130°56'0 0.0
2018-May-13 14:29N 33°57' E 130°56'0 0.0
2018-May-13 13:56N 33°57' E 130°56'0 0.0
2018-May-13 13:29N 33°57' E 130°56'0 0.0
2018-May-13 12:59N 33°57' E 130°56'0 0.0
2018-May-13 12:29N 33°57' E 130°56'0 0.0
2018-May-13 11:59N 33°57' E 130°56'0 0.0
2018-May-13 11:29N 33°57' E 130°56'0 0.0
2018-May-13 10:59N 33°57' E 130°56'0 0.0
2018-May-13 10:29N 33°57' E 130°56'0 0.0
2018-May-13 09:59N 33°57' E 130°56'0 0.0
2018-May-13 09:29N 33°57' E 130°56'0 0.0
2018-May-13 08:59N 33°57' E 130°56'0 0.0
2018-May-13 08:29N 33°57' E 130°56'0 0.0
2018-May-13 07:59N 33°57' E 130°56'0 0.0
2018-May-13 07:29N 33°57' E 130°56'0 0.0
2018-May-13 06:59N 33°57' E 130°56'0 0.0
2018-May-13 06:29N 33°57' E 130°56'0 0.0
2018-May-13 05:59N 33°57' E 130°56'0 0.0
2018-May-13 05:29N 33°57' E 130°56'0 0.0
2018-May-13 04:59N 33°57' E 130°56'0 0.0
2018-May-13 04:29N 33°57' E 130°56'0 0.0
2018-May-13 03:59N 33°57' E 130°56'0 0.0
2018-May-13 03:29N 33°57' E 130°56'0 0.0
2018-May-13 02:59N 33°57' E 130°56'0 0.0
2018-May-13 02:29N 33°57' E 130°56'0 0.2
2018-May-13 02:00N 33°57' E 130°56'1 2.6
2018-May-13 01:30N 33°58' E 130°57'4 7.2
2018-May-13 01:00N 34°00' E 131°00'0 0.0
2018-May-13 00:30N 34°00' E 131°00'0 0.0
2018-May-12 23:54N 34°00' E 131°00'0 0.0
2018-May-12 23:30N 34°00' E 131°00'0 0.3
2018-May-12 23:00N 34°01' E 131°00'3 5.2
2018-May-12 22:30N 33°59' E 131°03'2 3.4
2018-May-12 21:59N 33°58' E 131°04'0 0.0
2018-May-12 21:29N 33°58' E 131°04'0 0.0
2018-May-12 20:59N 33°58' E 131°04'0 0.0
2018-May-12 20:29N 33°58' E 131°04'0 0.0
2018-May-12 19:59N 33°58' E 131°04'0 0.0
2018-May-12 19:29N 33°58' E 131°04'0 0.0
2018-May-12 18:59N 33°58' E 131°04'0 0.0
2018-May-12 18:29N 33°58' E 131°04'0 0.0
2018-May-12 17:59N 33°58' E 131°04'0 0.0
2018-May-12 17:29N 33°58' E 131°04'0 0.0
2018-May-12 16:59N 33°58' E 131°04'0 0.0
2018-May-12 16:29N 33°58' E 131°04'0 0.1
2018-May-12 15:59N 33°58' E 131°04'0 0.0
2018-May-12 15:29N 33°58' E 131°04'0 0.0
2018-May-12 14:59N 33°58' E 131°04'0 0.0
2018-May-12 14:29N 33°58' E 131°04'0 0.0
2018-May-12 13:59N 33°58' E 131°04'0 0.0
2018-May-12 13:29N 33°58' E 131°04'0 0.0
2018-May-12 12:59N 33°58' E 131°04'0 0.0
2018-May-12 12:29N 33°58' E 131°04'0 0.0
2018-May-12 11:59N 33°58' E 131°04'0 0.0
2018-May-12 11:29N 33°58' E 131°04'0 0.0
2018-May-12 10:59N 33°58' E 131°04'0 0.0
2018-May-12 10:29N 33°58' E 131°04'0 0.0
2018-May-12 09:59N 33°58' E 131°04'0 0.0
2018-May-12 09:29N 33°58' E 131°04'0 0.0
2018-May-12 08:59N 33°58' E 131°04'0 0.0
2018-May-12 08:29N 33°58' E 131°04'0 0.0
2018-May-12 07:59N 33°58' E 131°04'0 0.0
2018-May-12 07:29N 33°58' E 131°04'0 0.1
2018-May-12 07:00N 33°58' E 131°04'612.0
2018-May-12 06:30N 33°54' E 131°10'713.4
2018-May-12 06:00N 33°51' E 131°17'713.6
2018-May-12 05:30N 33°48' E 131°24'713.4
2018-May-12 05:00N 33°45' E 131°32'713.5
2018-May-12 04:30N 33°42' E 131°39'712.7
2018-May-12 03:59N 33°37' E 131°44'611.6
2018-May-12 03:29N 33°31' E 131°46'611.5
2018-May-12 03:00N 33°26' E 131°45'611.9
2018-May-12 02:29N 33°20' E 131°42'4 1.1
2018-May-11 22:26N 33°16' E 131°41'3 5.9
2018-May-11 22:00N 33°19' E 131°41'3 0.5
2018-May-11 15:26N 33°22' E 131°40'6 2.1
2018-May-11 12:45N 33°26' E 131°45'312.8
2018-May-11 12:30N 33°29' E 131°46'612.1
2018-May-11 11:59N 33°35' E 131°45'612.6
2018-May-11 11:30N 33°40' E 131°41'612.4
2018-May-11 11:00N 33°43' E 131°34'611.8
2018-May-11 10:31N 33°46' E 131°28'611.7
2018-May-11 10:00N 33°48' E 131°21'611.6
2018-May-11 09:31N 33°50' E 131°15'611.5
2018-May-11 09:00N 33°53' E 131°09'611.6
2018-May-11 08:30N 33°56' E 131°03'5 9.7
2018-May-11 08:00N 33°58' E 130°58'5 9.4
2018-May-11 07:30N 33°55' E 130°53'2 3.1
2018-May-11 06:55N 33°55' E 130°51'0 0.0
2018-May-11 06:25N 33°55' E 130°51'0 0.0
2018-May-11 05:55N 33°55' E 130°51'0 0.0
2018-May-11 05:25N 33°55' E 130°51'0 0.0
2018-May-11 04:55N 33°55' E 130°51'0 0.0
2018-May-11 04:25N 33°55' E 130°51'0 0.0
2018-May-11 03:49N 33°55' E 130°51'0 0.0
2018-May-11 03:16N 33°55' E 130°51'1 3.1
2018-May-11 03:00N 33°55' E 130°52'3 5.4
2018-May-11 02:28N 33°57' E 130°49'0 0.0
2018-May-11 01:58N 33°57' E 130°49'0 0.0
2018-May-11 01:28N 33°57' E 130°49'0 0.0
2018-May-11 00:58N 33°57' E 130°49'0 0.0
2018-May-11 00:28N 33°57' E 130°49'0 0.0
2018-May-10 23:57N 33°57' E 130°49'2 4.5
2018-May-10 23:30N 33°57' E 130°52'4 8.6
2018-May-10 23:01N 33°57' E 130°57'611.6
2018-May-10 22:31N 33°58' E 131°04'0 0.1
2018-May-10 21:59N 33°58' E 131°04'0 0.0
2018-May-10 21:29N 33°58' E 131°04'0 0.0
2018-May-10 20:59N 33°58' E 131°04'0 0.0
2018-May-10 20:29N 33°58' E 131°04'0 0.1
2018-May-10 19:59N 33°58' E 131°04'0 0.0
2018-May-10 19:29N 33°58' E 131°04'0 0.0
2018-May-10 18:59N 33°58' E 131°04'0 0.0
2018-May-10 18:29N 33°58' E 131°04'0 0.0
2018-May-10 17:59N 33°58' E 131°04'0 0.0
2018-May-10 17:29N 33°58' E 131°04'0 0.0
2018-May-10 16:59N 33°58' E 131°04'0 0.0
2018-May-10 16:23N 33°58' E 131°04'0 0.0
2018-May-10 15:59N 33°58' E 131°04'0 0.0
2018-May-10 15:29N 33°58' E 131°04'0 0.1
2018-May-10 14:59N 33°58' E 131°04'0 0.0
2018-May-10 14:29N 33°58' E 131°04'0 0.1
2018-May-10 13:59N 33°58' E 131°04'0 0.1
2018-May-10 13:29N 33°58' E 131°04'0 0.0
2018-May-10 12:59N 33°58' E 131°04'0 0.0
2018-May-10 12:29N 33°58' E 131°04'0 0.0
2018-May-10 11:59N 33°58' E 131°04'0 0.0
2018-May-10 11:29N 33°58' E 131°04'0 0.0
2018-May-10 10:59N 33°58' E 131°04'0 0.0
2018-May-10 10:29N 33°58' E 131°04'0 0.0
2018-May-10 09:59N 33°58' E 131°04'0 0.0
2018-May-10 09:29N 33°58' E 131°04'2 5.2
2018-May-10 09:00N 33°56' E 131°06'612.3
2018-May-10 08:29N 33°53' E 131°13'612.6
2018-May-10 08:00N 33°50' E 131°19'612.5
2018-May-10 07:30N 33°47' E 131°26'612.5
2018-May-10 07:00N 33°44' E 131°33'612.1
2018-May-10 06:29N 33°42' E 131°39'612.4
2018-May-10 06:01N 33°37' E 131°44'612.0
2018-May-10 05:29N 33°31' E 131°46'812.4
2018-May-10 04:50N 33°23' E 131°43'412.4
2018-May-10 04:28N 33°19' E 131°42'3 0.7
2018-May-10 00:17N 33°16' E 131°41'3 8.8
2018-May-09 23:58N 33°19' E 131°40'2 0.1
2018-May-09 08:15N 33°21' E 131°40'310.8
2018-May-09 07:58N 33°18' E 131°39'3 0.3
2018-May-08 22:52N 33°15' E 131°36'1 0.8
2018-May-08 22:11N 33°15' E 131°36'0 0.0
2018-May-08 21:58N 33°15' E 131°36'0 0.0
2018-May-08 20:48N 33°15' E 131°36'0 0.0
2018-May-08 19:59N 33°15' E 131°36'0 0.0
2018-May-08 19:21N 33°15' E 131°36'0 0.0
2018-May-08 17:20N 33°15' E 131°36'0 0.0
2018-May-08 16:19N 33°15' E 131°36'0 0.0
2018-May-08 15:54N 33°15' E 131°36'0 0.0
2018-May-08 09:19N 33°15' E 131°36'0 0.0
2018-May-08 06:39N 33°15' E 131°36'0 0.0
2018-May-08 06:29N 33°15' E 131°36'0 0.0
2018-May-08 02:45N 33°15' E 131°36'0 1.4
2018-May-08 02:29N 33°15' E 131°36'4 8.3
2018-May-08 01:59N 33°16' E 131°41'0 0.0
2018-May-08 01:26N 33°16' E 131°41'0 0.3
2018-May-08 00:31N 33°16' E 131°41'0 0.0
2018-May-08 00:29N 33°16' E 131°41'0 0.0
2018-May-07 23:35N 33°16' E 131°41'0 0.0
2018-May-07 23:30N 33°16' E 131°41'0 0.0
2018-May-07 23:00N 33°16' E 131°41'0 0.0
2018-May-07 22:30N 33°16' E 131°41'3 6.9
2018-May-07 22:00N 33°19' E 131°41'3 5.5
2018-May-07 21:25N 33°23' E 131°41'0 0.0
2018-May-07 20:55N 33°23' E 131°41'0 0.0
2018-May-07 20:25N 33°23' E 131°41'0 0.0
2018-May-07 19:58N 33°23' E 131°41'0 0.0
2018-May-07 19:25N 33°23' E 131°41'0 0.0
2018-May-07 18:55N 33°23' E 131°41'0 0.0
2018-May-07 18:28N 33°23' E 131°41'0 0.0
2018-May-07 17:58N 33°23' E 131°41'0 0.0
2018-May-07 17:25N 33°23' E 131°41'0 0.0
2018-May-07 16:58N 33°23' E 131°41'0 0.0
2018-May-07 16:28N 33°23' E 131°41'0 0.0
2018-May-07 15:58N 33°23' E 131°41'0 0.0
2018-May-07 15:28N 33°23' E 131°41'0 0.0
2018-May-07 14:58N 33°23' E 131°41'0 0.0
2018-May-07 14:28N 33°23' E 131°41'0 0.0
2018-May-07 13:58N 33°23' E 131°41'0 0.0
2018-May-07 13:25N 33°23' E 131°41'0 0.0
2018-May-07 12:58N 33°23' E 131°41'0 0.1
2018-May-07 12:28N 33°23' E 131°41'5 7.2
2018-May-07 11:49N 33°26' E 131°45'412.3
2018-May-07 11:30N 33°30' E 131°47'611.9
2018-May-07 11:00N 33°35' E 131°45'612.5
2018-May-07 10:30N 33°40' E 131°41'612.6
2018-May-07 10:00N 33°43' E 131°34'612.4
2018-May-07 09:30N 33°46' E 131°27'612.5
2018-May-07 09:00N 33°48' E 131°20'612.5
2018-May-07 08:30N 33°51' E 131°13'612.5
2018-May-07 08:00N 33°54' E 131°07'612.6
2018-May-07 07:30N 33°58' E 131°01'611.2
2018-May-07 07:00N 33°55' E 130°56'510.3
2018-May-07 06:30N 33°57' E 130°50'1 1.4
2018-May-07 05:59N 33°57' E 130°49'0 0.0
2018-May-07 05:29N 33°57' E 130°49'0 0.0
2018-May-07 04:59N 33°57' E 130°49'0 0.0
2018-May-07 04:29N 33°57' E 130°49'0 0.0
2018-May-07 03:59N 33°57' E 130°49'0 0.0
2018-May-07 03:29N 33°57' E 130°49'0 0.0
2018-May-07 02:59N 33°57' E 130°49'0 0.0
2018-May-07 02:29N 33°57' E 130°49'0 0.0
2018-May-07 01:59N 33°57' E 130°49'2 3.3
2018-May-07 01:30N 33°57' E 130°51'3 5.0
2018-May-07 00:59N 33°55' E 130°51'0 0.0
2018-May-07 00:26N 33°55' E 130°51'0 0.0
2018-May-06 23:59N 33°55' E 130°51'0 0.0
2018-May-06 23:29N 33°55' E 130°51'0 0.3
2018-May-06 22:58N 33°54' E 130°51'0 0.0
2018-May-06 22:28N 33°54' E 130°51'0 0.0
2018-May-06 21:58N 33°54' E 130°51'0 0.0
2018-May-06 21:28N 33°54' E 130°51'0 0.0
2018-May-06 20:58N 33°54' E 130°51'0 0.0
2018-May-06 20:28N 33°54' E 130°51'0 0.0
2018-May-06 19:58N 33°54' E 130°51'0 0.0
2018-May-06 19:28N 33°54' E 130°51'0 0.0
2018-May-06 18:58N 33°54' E 130°51'0 0.0
2018-May-06 18:28N 33°54' E 130°51'0 0.0
2018-May-06 17:58N 33°54' E 130°51'0 0.0
2018-May-06 17:28N 33°54' E 130°51'0 0.0
2018-May-06 16:58N 33°54' E 130°51'0 0.0
2018-May-06 16:28N 33°54' E 130°51'0 0.0
2018-May-06 15:58N 33°54' E 130°51'0 0.0
2018-May-06 15:28N 33°54' E 130°51'0 0.0
2018-May-06 14:58N 33°54' E 130°51'0 0.0
2018-May-06 14:28N 33°54' E 130°51'0 0.0
2018-May-06 13:58N 33°54' E 130°51'0 0.0
2018-May-06 13:28N 33°54' E 130°51'0 0.0
2018-May-06 12:58N 33°54' E 130°51'0 0.0
2018-May-06 12:28N 33°54' E 130°51'0 0.0
2018-May-06 11:58N 33°54' E 130°51'0 0.0
2018-May-06 11:28N 33°54' E 130°51'0 0.0
2018-May-06 10:58N 33°54' E 130°51'0 0.0
2018-May-06 10:28N 33°54' E 130°51'0 0.0
2018-May-06 09:58N 33°54' E 130°51'0 0.0
2018-May-06 09:28N 33°54' E 130°51'0 0.0
2018-May-06 08:58N 33°54' E 130°51'0 0.0
2018-May-06 08:28N 33°54' E 130°51'  
Track history (hours):
 
Tides and Currents Weather Stations Pressure Air Temp Water Temp Dewpoint Dewpoint Depression Visibility Wind Speed Wind Dir Waves Ship Positions

Shinkomaru No.8

Last reported at 2018-May-16 08:00 UTC. Time now 2018-May-20 15:14 UTC.
Position N 34°44' E 134°34'.

Length 61 m; draft 4.4 m.

Type: Tanker. MMSI: 431400035.

Date/timePositionNaut miles runAvg speedWind from/ knotsBaromVisibWave heightAir tempDewpointWater temp
2018-May-16 08:00N 34°44' E 134°34'3 0.1
2018-May-15 14:15N 34°44' E 134°38'0 0.0
2018-May-15 13:51N 34°44' E 134°38'0 0.0
2018-May-15 13:29N 34°44' E 134°38'0 0.0
2018-May-15 12:56N 34°44' E 134°38'0 0.0
2018-May-15 12:02N 34°44' E 134°38'0 0.0
2018-May-15 11:37N 34°44' E 134°38'0 0.0
2018-May-15 11:13N 34°44' E 134°38'0 0.0
2018-May-15 10:54N 34°44' E 134°38'3 7.5
2018-May-15 10:30N 34°42' E 134°41'612.4
2018-May-15 10:00N 34°40' E 134°48'714.0
2018-May-15 09:30N 34°37' E 134°56'713.7
2018-May-15 09:00N 34°36' E 135°04'611.7
2018-May-15 08:30N 34°30' E 135°05'612.8
2018-May-15 08:00N 34°24' E 135°05'612.7
2018-May-15 07:30N 34°18' E 135°04'4 8.7
2018-May-15 07:01N 34°14' E 135°07'0 0.2
2018-May-15 06:10N 34°14' E 135°07'0 0.0
2018-May-15 05:52N 34°14' E 135°07'0 0.0
2018-May-15 05:28N 34°14' E 135°07'0 0.0
2018-May-15 01:28N 34°14' E 135°07'0 0.0
2018-May-15 00:58N 34°14' E 135°07'0 0.0
2018-May-15 00:28N 34°14' E 135°07'0 0.0
2018-May-14 23:58N 34°14' E 135°07'0 0.0
2018-May-14 23:28N 34°14' E 135°07'0 0.0
2018-May-14 22:58N 34°14' E 135°07'0 0.0
2018-May-14 22:28N 34°14' E 135°07'0 0.2
2018-May-14 22:00N 34°14' E 135°07'1 1.5
2018-May-14 21:28N 34°15' E 135°06'0 0.0
2018-May-14 21:00N 34°15' E 135°06'0 0.0
2018-May-14 20:30N 34°15' E 135°06'0 0.0
2018-May-14 20:00N 34°15' E 135°06'0 0.0
2018-May-14 19:30N 34°15' E 135°06'0 0.0
2018-May-14 18:59N 34°15' E 135°06'0 0.0
2018-May-14 18:29N 34°15' E 135°06'0 0.0
2018-May-14 17:59N 34°15' E 135°06'1 2.5
2018-May-14 17:30N 34°15' E 135°05'612.4
2018-May-14 17:00N 34°13' E 134°58'612.1
2018-May-14 16:30N 34°12' E 134°51'612.6
2018-May-14 16:00N 34°10' E 134°43'714.0
2018-May-14 15:30N 34°16' E 134°38'713.4
2018-May-14 15:00N 34°18' E 134°31'713.1
2018-May-14 14:30N 34°21' E 134°23'612.9
2018-May-14 14:00N 34°23' E 134°16'713.0
2018-May-14 13:29N 34°26' E 134°08'7211.3
2018-May-14 07:06N 34°01' E 132°46'112.5
2018-May-14 06:59N 33°60' E 132°45'611.4
2018-May-14 06:29N 33°56' E 132°40'2011.4
2018-May-14 04:43N 33°50' E 132°17'411.9
2018-May-14 04:22N 33°50' E 132°12'511.2
2018-May-14 03:54N 33°47' E 132°07'711.4
2018-May-14 03:19N 33°45' E 131°59'412.5
2018-May-14 03:01N 33°45' E 131°54'613.0
2018-May-14 02:31N 33°47' E 131°47'713.3
2018-May-14 02:00N 33°48' E 131°39'713.6
2018-May-14 01:30N 33°49' E 131°31'713.2
2018-May-14 01:00N 33°50' E 131°23'612.8
2018-May-14 00:30N 33°51' E 131°15'612.4
2018-May-14 00:00N 33°53' E 131°09'611.9
2018-May-13 23:31N 33°57' E 131°03'5 9.8
2018-May-13 23:01N 33°58' E 130°58'1 2.6
2018-May-13 22:29N 33°57' E 130°56'0 0.0
2018-May-13 21:59N 33°57' E 130°56'0 0.0
2018-May-13 21:29N 33°57' E 130°56'0 0.0
2018-May-13 20:59N 33°57' E 130°56'0 0.0
2018-May-13 20:29N 33°57' E 130°56'0 0.0
2018-May-13 19:59N 33°57' E 130°56'0 0.0
2018-May-13 19:29N 33°57' E 130°56'0 0.0
2018-May-13 18:59N 33°57' E 130°56'0 0.0
2018-May-13 18:26N 33°57' E 130°56'0 0.0
2018-May-13 17:59N 33°57' E 130°56'0 0.0
2018-May-13 17:29N 33°57' E 130°56'0 0.0
2018-May-13 16:59N 33°57' E 130°56'0 0.0
2018-May-13 16:26N 33°57' E 130°56'0 0.0
2018-May-13 15:59N 33°57' E 130°56'0 0.0
2018-May-13 15:29N 33°57' E 130°56'0 0.0
2018-May-13 14:59N 33°57' E 130°56'0 0.0
2018-May-13 14:29N 33°57' E 130°56'0 0.0
2018-May-13 13:56N 33°57' E 130°56'0 0.0
2018-May-13 13:29N 33°57' E 130°56'0 0.0
2018-May-13 12:59N 33°57' E 130°56'0 0.0
2018-May-13 12:29N 33°57' E 130°56'0 0.0
2018-May-13 11:59N 33°57' E 130°56'0 0.0
2018-May-13 11:29N 33°57' E 130°56'0 0.0
2018-May-13 10:59N 33°57' E 130°56'0 0.0
2018-May-13 10:29N 33°57' E 130°56'0 0.0
2018-May-13 09:59N 33°57' E 130°56'0 0.0
2018-May-13 09:29N 33°57' E 130°56'0 0.0
2018-May-13 08:59N 33°57' E 130°56'0 0.0
2018-May-13 08:29N 33°57' E 130°56'0 0.0
2018-May-13 07:59N 33°57' E 130°56'0 0.0
2018-May-13 07:29N 33°57' E 130°56'0 0.0
2018-May-13 06:59N 33°57' E 130°56'0 0.0
2018-May-13 06:29N 33°57' E 130°56'0 0.0
2018-May-13 05:59N 33°57' E 130°56'0 0.0
2018-May-13 05:29N 33°57' E 130°56'0 0.0
2018-May-13 04:59N 33°57' E 130°56'0 0.0
2018-May-13 04:29N 33°57' E 130°56'0 0.0
2018-May-13 03:59N 33°57' E 130°56'0 0.0
2018-May-13 03:29N 33°57' E 130°56'0 0.0
2018-May-13 02:59N 33°57' E 130°56'0 0.0
2018-May-13 02:29N 33°57' E 130°56'0 0.2
2018-May-13 02:00N 33°57' E 130°56'1 2.6
2018-May-13 01:30N 33°58' E 130°57'4 7.2
2018-May-13 01:00N 34°00' E 131°00'0 0.0
2018-May-13 00:30N 34°00' E 131°00'0 0.0
2018-May-12 23:54N 34°00' E 131°00'0 0.0
2018-May-12 23:30N 34°00' E 131°00'0 0.3
2018-May-12 23:00N 34°01' E 131°00'3 5.2
2018-May-12 22:30N 33°59' E 131°03'2 3.4
2018-May-12 21:59N 33°58' E 131°04'0 0.0
2018-May-12 21:29N 33°58' E 131°04'0 0.0
2018-May-12 20:59N 33°58' E 131°04'0 0.0
2018-May-12 20:29N 33°58' E 131°04'0 0.0
2018-May-12 19:59N 33°58' E 131°04'0 0.0
2018-May-12 19:29N 33°58' E 131°04'0 0.0
2018-May-12 18:59N 33°58' E 131°04'0 0.0
2018-May-12 18:29N 33°58' E 131°04'0 0.0
2018-May-12 17:59N 33°58' E 131°04'0 0.0
2018-May-12 17:29N 33°58' E 131°04'0 0.0
2018-May-12 16:59N 33°58' E 131°04'0 0.0
2018-May-12 16:29N 33°58' E 131°04'0 0.1
2018-May-12 15:59N 33°58' E 131°04'0 0.0
2018-May-12 15:29N 33°58' E 131°04'0 0.0
2018-May-12 14:59N 33°58' E 131°04'0 0.0
2018-May-12 14:29N 33°58' E 131°04'0 0.0
2018-May-12 13:59N 33°58' E 131°04'0 0.0
2018-May-12 13:29N 33°58' E 131°04'0 0.0
2018-May-12 12:59N 33°58' E 131°04'0 0.0
2018-May-12 12:29N 33°58' E 131°04'0 0.0
2018-May-12 11:59N 33°58' E 131°04'0 0.0
2018-May-12 11:29N 33°58' E 131°04'0 0.0
2018-May-12 10:59N 33°58' E 131°04'0 0.0
2018-May-12 10:29N 33°58' E 131°04'0 0.0
2018-May-12 09:59N 33°58' E 131°04'0 0.0
2018-May-12 09:29N 33°58' E 131°04'0 0.0
2018-May-12 08:59N 33°58' E 131°04'0 0.0
2018-May-12 08:29N 33°58' E 131°04'0 0.0
2018-May-12 07:59N 33°58' E 131°04'0 0.0
2018-May-12 07:29N 33°58' E 131°04'0 0.1
2018-May-12 07:00N 33°58' E 131°04'612.0
2018-May-12 06:30N 33°54' E 131°10'713.4
2018-May-12 06:00N 33°51' E 131°17'713.6
2018-May-12 05:30N 33°48' E 131°24'713.4
2018-May-12 05:00N 33°45' E 131°32'713.5
2018-May-12 04:30N 33°42' E 131°39'712.7
2018-May-12 03:59N 33°37' E 131°44'611.6
2018-May-12 03:29N 33°31' E 131°46'611.5
2018-May-12 03:00N 33°26' E 131°45'611.9
2018-May-12 02:29N 33°20' E 131°42'4 1.1
2018-May-11 22:26N 33°16' E 131°41'3 5.9
2018-May-11 22:00N 33°19' E 131°41'3 0.5
2018-May-11 15:26N 33°22' E 131°40'6 2.1
2018-May-11 12:45N 33°26' E 131°45'312.8
2018-May-11 12:30N 33°29' E 131°46'612.1
2018-May-11 11:59N 33°35' E 131°45'612.6
2018-May-11 11:30N 33°40' E 131°41'612.4
2018-May-11 11:00N 33°43' E 131°34'611.8
2018-May-11 10:31N 33°46' E 131°28'611.7
2018-May-11 10:00N 33°48' E 131°21'611.6
2018-May-11 09:31N 33°50' E 131°15'611.5
2018-May-11 09:00N 33°53' E 131°09'611.6
2018-May-11 08:30N 33°56' E 131°03'5 9.7
2018-May-11 08:00N 33°58' E 130°58'5 9.4
2018-May-11 07:30N 33°55' E 130°53'2 3.1
2018-May-11 06:55N 33°55' E 130°51'0 0.0
2018-May-11 06:25N 33°55' E 130°51'0 0.0
2018-May-11 05:55N 33°55' E 130°51'0 0.0
2018-May-11 05:25N 33°55' E 130°51'0 0.0
2018-May-11 04:55N 33°55' E 130°51'0 0.0
2018-May-11 04:25N 33°55' E 130°51'0 0.0
2018-May-11 03:49N 33°55' E 130°51'0 0.0
2018-May-11 03:16N 33°55' E 130°51'1 3.1
2018-May-11 03:00N 33°55' E 130°52'3 5.4
2018-May-11 02:28N 33°57' E 130°49'0 0.0
2018-May-11 01:58N 33°57' E 130°49'0 0.0
2018-May-11 01:28N 33°57' E 130°49'0 0.0
2018-May-11 00:58N 33°57' E 130°49'0 0.0
2018-May-11 00:28N 33°57' E 130°49'0 0.0
2018-May-10 23:57N 33°57' E 130°49'2 4.5
2018-May-10 23:30N 33°57' E 130°52'4 8.6
2018-May-10 23:01N 33°57' E 130°57'611.6
2018-May-10 22:31N 33°58' E 131°04'0 0.1
2018-May-10 21:59N 33°58' E 131°04'0 0.0
2018-May-10 21:29N 33°58' E 131°04'0 0.0
2018-May-10 20:59N 33°58' E 131°04'0 0.0
2018-May-10 20:29N 33°58' E 131°04'0 0.1
2018-May-10 19:59N 33°58' E 131°04'0 0.0
2018-May-10 19:29N 33°58' E 131°04'0 0.0
2018-May-10 18:59N 33°58' E 131°04'0 0.0
2018-May-10 18:29N 33°58' E 131°04'0 0.0
2018-May-10 17:59N 33°58' E 131°04'0 0.0
2018-May-10 17:29N 33°58' E 131°04'0 0.0
2018-May-10 16:59N 33°58' E 131°04'0 0.0
2018-May-10 16:23N 33°58' E 131°04'0 0.0
2018-May-10 15:59N 33°58' E 131°04'0 0.0
2018-May-10 15:29N 33°58' E 131°04'0 0.1
2018-May-10 14:59N 33°58' E 131°04'0 0.0
2018-May-10 14:29N 33°58' E 131°04'0 0.1
2018-May-10 13:59N 33°58' E 131°04'0 0.1
2018-May-10 13:29N 33°58' E 131°04'0 0.0
2018-May-10 12:59N 33°58' E 131°04'0 0.0
2018-May-10 12:29N 33°58' E 131°04'0 0.0
2018-May-10 11:59N 33°58' E 131°04'0 0.0
2018-May-10 11:29N 33°58' E 131°04'0 0.0
2018-May-10 10:59N 33°58' E 131°04'0 0.0
2018-May-10 10:29N 33°58' E 131°04'0 0.0
2018-May-10 09:59N 33°58' E 131°04'0 0.0
2018-May-10 09:29N 33°58' E 131°04'2 5.2
2018-May-10 09:00N 33°56' E 131°06'612.3
2018-May-10 08:29N 33°53' E 131°13'612.6
2018-May-10 08:00N 33°50' E 131°19'612.5
2018-May-10 07:30N 33°47' E 131°26'612.5
2018-May-10 07:00N 33°44' E 131°33'612.1
2018-May-10 06:29N 33°42' E 131°39'612.4
2018-May-10 06:01N 33°37' E 131°44'612.0
2018-May-10 05:29N 33°31' E 131°46'812.4
2018-May-10 04:50N 33°23' E 131°43'412.4
2018-May-10 04:28N 33°19' E 131°42'3 0.7
2018-May-10 00:17N 33°16' E 131°41'3 8.8
2018-May-09 23:58N 33°19' E 131°40'2 0.1
2018-May-09 08:15N 33°21' E 131°40'310.8
2018-May-09 07:58N 33°18' E 131°39'3 0.3
2018-May-08 22:52N 33°15' E 131°36'1 0.8
2018-May-08 22:11N 33°15' E 131°36'0 0.0
2018-May-08 21:58N 33°15' E 131°36'0 0.0
2018-May-08 20:48N 33°15' E 131°36'0 0.0
2018-May-08 19:59N 33°15' E 131°36'0 0.0
2018-May-08 19:21N 33°15' E 131°36'0 0.0
2018-May-08 17:20N 33°15' E 131°36'0 0.0
2018-May-08 16:19N 33°15' E 131°36'0 0.0
2018-May-08 15:54N 33°15' E 131°36'0 0.0
2018-May-08 09:19N 33°15' E 131°36'0 0.0
2018-May-08 06:39N 33°15' E 131°36'0 0.0
2018-May-08 06:29N 33°15' E 131°36'0 0.0
2018-May-08 02:45N 33°15' E 131°36'0 1.4
2018-May-08 02:29N 33°15' E 131°36'4 8.3
2018-May-08 01:59N 33°16' E 131°41'0 0.0
2018-May-08 01:26N 33°16' E 131°41'0 0.3
2018-May-08 00:31N 33°16' E 131°41'0 0.0
2018-May-08 00:29N 33°16' E 131°41'0 0.0
2018-May-07 23:35N 33°16' E 131°41'0 0.0
2018-May-07 23:30N 33°16' E 131°41'0 0.0
2018-May-07 23:00N 33°16' E 131°41'0 0.0
2018-May-07 22:30N 33°16' E 131°41'3 6.9
2018-May-07 22:00N 33°19' E 131°41'3 5.5
2018-May-07 21:25N 33°23' E 131°41'0 0.0
2018-May-07 20:55N 33°23' E 131°41'0 0.0
2018-May-07 20:25N 33°23' E 131°41'0 0.0
2018-May-07 19:58N 33°23' E 131°41'0 0.0
2018-May-07 19:25N 33°23' E 131°41'0 0.0
2018-May-07 18:55N 33°23' E 131°41'0 0.0
2018-May-07 18:28N 33°23' E 131°41'0 0.0
2018-May-07 17:58N 33°23' E 131°41'0 0.0
2018-May-07 17:25N 33°23' E 131°41'0 0.0
2018-May-07 16:58N 33°23' E 131°41'0 0.0
2018-May-07 16:28N 33°23' E 131°41'0 0.0
2018-May-07 15:58N 33°23' E 131°41'0 0.0
2018-May-07 15:28N 33°23' E 131°41'0 0.0
2018-May-07 14:58N 33°23' E 131°41'0 0.0
2018-May-07 14:28N 33°23' E 131°41'0 0.0
2018-May-07 13:58N 33°23' E 131°41'0 0.0
2018-May-07 13:25N 33°23' E 131°41'0 0.0
2018-May-07 12:58N 33°23' E 131°41'0 0.1
2018-May-07 12:28N 33°23' E 131°41'5 7.2
2018-May-07 11:49N 33°26' E 131°45'412.3
2018-May-07 11:30N 33°30' E 131°47'611.9
2018-May-07 11:00N 33°35' E 131°45'612.5
2018-May-07 10:30N 33°40' E 131°41'612.6
2018-May-07 10:00N 33°43' E 131°34'612.4
2018-May-07 09:30N 33°46' E 131°27'612.5
2018-May-07 09:00N 33°48' E 131°20'612.5
2018-May-07 08:30N 33°51' E 131°13'612.5
2018-May-07 08:00N 33°54' E 131°07'612.6
2018-May-07 07:30N 33°58' E 131°01'611.2
2018-May-07 07:00N 33°55' E 130°56'510.3
2018-May-07 06:30N 33°57' E 130°50'1 1.4
2018-May-07 05:59N 33°57' E 130°49'0 0.0
2018-May-07 05:29N 33°57' E 130°49'0 0.0
2018-May-07 04:59N 33°57' E 130°49'0 0.0
2018-May-07 04:29N 33°57' E 130°49'0 0.0
2018-May-07 03:59N 33°57' E 130°49'0 0.0
2018-May-07 03:29N 33°57' E 130°49'0 0.0
2018-May-07 02:59N 33°57' E 130°49'0 0.0
2018-May-07 02:29N 33°57' E 130°49'0 0.0
2018-May-07 01:59N 33°57' E 130°49'2 3.3
2018-May-07 01:30N 33°57' E 130°51'3 5.0
2018-May-07 00:59N 33°55' E 130°51'0 0.0
2018-May-07 00:26N 33°55' E 130°51'0 0.0
2018-May-06 23:59N 33°55' E 130°51'0 0.0
2018-May-06 23:29N 33°55' E 130°51'0 0.3
2018-May-06 22:58N 33°54' E 130°51'0 0.0
2018-May-06 22:28N 33°54' E 130°51'0 0.0
2018-May-06 21:58N 33°54' E 130°51'0 0.0
2018-May-06 21:28N 33°54' E 130°51'0 0.0
2018-May-06 20:58N 33°54' E 130°51'0 0.0
2018-May-06 20:28N 33°54' E 130°51'0 0.0
2018-May-06 19:58N 33°54' E 130°51'0 0.0
2018-May-06 19:28N 33°54' E 130°51'0 0.0
2018-May-06 18:58N 33°54' E 130°51'0 0.0
2018-May-06 18:28N 33°54' E 130°51'0 0.0
2018-May-06 17:58N 33°54' E 130°51'0 0.0
2018-May-06 17:28N 33°54' E 130°51'0 0.0
2018-May-06 16:58N 33°54' E 130°51'0 0.0
2018-May-06 16:28N 33°54' E 130°51'0 0.0
2018-May-06 15:58N 33°54' E 130°51'0 0.0
2018-May-06 15:28N 33°54' E 130°51'0 0.0
2018-May-06 14:58N 33°54' E 130°51'0 0.0
2018-May-06 14:28N 33°54' E 130°51'0 0.0
2018-May-06 13:58N 33°54' E 130°51'0 0.0
2018-May-06 13:28N 33°54' E 130°51'0 0.0
2018-May-06 12:58N 33°54' E 130°51'0 0.0
2018-May-06 12:28N 33°54' E 130°51'0 0.0
2018-May-06 11:58N 33°54' E 130°51'0 0.0
2018-May-06 11:28N 33°54' E 130°51'0 0.0
2018-May-06 10:58N 33°54' E 130°51'0 0.0
2018-May-06 10:28N 33°54' E 130°51'0 0.0
2018-May-06 09:58N 33°54' E 130°51'0 0.0
2018-May-06 09:28N 33°54' E 130°51'0 0.0
2018-May-06 08:58N 33°54' E 130°51'0 0.0
2018-May-06 08:28N 33°54' E 130°51'  

Dump ship's entire track history